UAE777 KMSY-KFLL
Flight info
| Callsign | UAE777 |
|---|---|
| Flight time | 1h 7m |
| Altitude | 41000 |
| Route | BLVNS Y290 OCHHO VNECK TEEKY3 |
| Aircraft | A333/H-SDE3GHIJ2J3J5M1RVWXY/LB2D1 |
Departure
| Time | 2026-05-03 21:05 |
|---|---|
| Airport | Louis Armstrong New Orleans International Airport (KMSY) |
Arrival
| Time | 2026-05-03 22:12 |
|---|---|
| Airport | Fort Lauderdale Hollywood International Airport (KFLL) |
| Time | Latitude | Longitude | Altitude | Speed | Heading |
|---|---|---|---|---|---|
| 2026-05-03 20:54 | 29.99624 | -90.26215 | 16 ft | 0 kts | 16° |
| 2026-05-03 21:01 | 29.99640 | -90.26227 | 16 ft | 4 kts | 302° |
| 2026-05-03 21:01 | 29.99668 | -90.26334 | 16 ft | 22 kts | 286° |
| 2026-05-03 21:02 | 29.99713 | -90.26515 | 16 ft | 23 kts | 286° |
| 2026-05-03 21:02 | 29.99624 | -90.26215 | 16 ft | 0 kts | 16° |
| 2026-05-03 21:03 | 29.99844 | -90.28014 | 16 ft | 7 kts | 276° |
| 2026-05-03 21:04 | 29.99820 | -90.28100 | 16 ft | 13 kts | 218° |
| 2026-05-03 21:04 | 29.99735 | -90.28141 | 16 ft | 13 kts | 195° |
| 2026-05-03 21:04 | 29.99655 | -90.28117 | 16 ft | 12 kts | 123° |
| 2026-05-03 21:04 | 29.99597 | -90.27902 | 16 ft | 60 kts | 105° |
| 2026-05-03 21:05 | 29.99400 | -90.27085 | 16 ft | 147 kts | 105° |
| 2026-05-03 21:05 | 29.99050 | -90.25713 | 206 ft | 202 kts | 108° |
| 2026-05-03 21:05 | 29.98519 | -90.24152 | 999 ft | 225 kts | 112° |
| 2026-05-03 21:05 | 29.97710 | -90.22430 | 1649 ft | 275 kts | 128° |
| 2026-05-03 21:06 | 29.96186 | -90.20837 | 2713 ft | 308 kts | 135° |
| 2026-05-03 21:06 | 29.94765 | -90.19019 | 4224 ft | 322 kts | 130° |
| 2026-05-03 21:06 | 29.93217 | -90.16878 | 4695 ft | 363 kts | 127° |
| 2026-05-03 21:06 | 29.91736 | -90.14761 | 6207 ft | 345 kts | 128° |
| 2026-05-03 21:07 | 29.90152 | -90.12556 | 6513 ft | 365 kts | 128° |
| 2026-05-03 21:07 | 29.88556 | -90.10311 | 7513 ft | 363 kts | 128° |
| 2026-05-03 21:07 | 29.86962 | -90.08064 | 8209 ft | 370 kts | 128° |
| 2026-05-03 21:07 | 29.85322 | -90.05749 | 8866 ft | 377 kts | 128° |
| 2026-05-03 21:08 | 29.83650 | -90.03392 | 9630 ft | 381 kts | 128° |
| 2026-05-03 21:08 | 29.81962 | -90.01012 | 10329 ft | 386 kts | 128° |
| 2026-05-03 21:08 | 29.80263 | -89.98621 | 10919 ft | 393 kts | 129° |
| 2026-05-03 21:08 | 29.78531 | -89.96184 | 11611 ft | 397 kts | 129° |
| 2026-05-03 21:09 | 29.76765 | -89.93700 | 12213 ft | 404 kts | 129° |
| 2026-05-03 21:09 | 29.74978 | -89.91187 | 12894 ft | 407 kts | 129° |
| 2026-05-03 21:09 | 29.73182 | -89.88666 | 13494 ft | 413 kts | 129° |
| 2026-05-03 21:09 | 29.47255 | -89.60500 | 14235 ft | 413 kts | 130° |
| 2026-05-03 21:10 | 29.41055 | -89.44591 | 14556 ft | 425 kts | 122° |
| 2026-05-03 21:10 | 29.39386 | -89.41807 | 26140 ft | 426 kts | 130° |
| 2026-05-03 21:10 | 29.09738 | -88.99446 | 26217 ft | 433 kts | 148° |
| 2026-05-03 21:10 | 29.07461 | -88.97042 | 26177 ft | 455 kts | 140° |
| 2026-05-03 21:11 | 29.05291 | -88.94318 | 26216 ft | 471 kts | 137° |
| 2026-05-03 21:11 | 29.03128 | -88.91442 | 26251 ft | 485 kts | 136° |
| 2026-05-03 21:11 | 29.00921 | -88.88444 | 26285 ft | 497 kts | 135° |
| 2026-05-03 21:11 | 28.98684 | -88.85390 | 26300 ft | 508 kts | 135° |
| 2026-05-03 21:12 | 28.96388 | -88.82246 | 26453 ft | 515 kts | 135° |
| 2026-05-03 21:12 | 28.94121 | -88.79141 | 26988 ft | 513 kts | 135° |
| 2026-05-03 21:12 | 28.91831 | -88.76012 | 27361 ft | 515 kts | 135° |
| 2026-05-03 21:12 | 28.88981 | -88.72128 | 27350 ft | 526 kts | 135° |
| 2026-05-03 21:13 | 28.86064 | -88.68144 | 27648 ft | 529 kts | 135° |
| 2026-05-03 21:13 | 28.83172 | -88.64204 | 27984 ft | 532 kts | 135° |
| 2026-05-03 21:13 | 28.80219 | -88.60181 | 28321 ft | 534 kts | 135° |
| 2026-05-03 21:13 | 28.77285 | -88.56197 | 28561 ft | 537 kts | 135° |
| 2026-05-03 21:14 | 28.74314 | -88.52154 | 28889 ft | 539 kts | 135° |
| 2026-05-03 21:14 | 28.71325 | -88.48097 | 29251 ft | 539 kts | 135° |
| 2026-05-03 21:14 | 28.68358 | -88.44073 | 29439 ft | 542 kts | 135° |
| 2026-05-03 21:14 | 28.65327 | -88.39970 | 29663 ft | 544 kts | 135° |
| 2026-05-03 21:15 | 28.62326 | -88.35905 | 29862 ft | 546 kts | 135° |
| 2026-05-03 21:15 | 28.59296 | -88.31802 | 30054 ft | 547 kts | 136° |
| 2026-05-03 21:15 | 28.57643 | -88.29571 | 30170 ft | 547 kts | 136° |
| 2026-05-03 21:15 | 28.54486 | -88.25312 | 30317 ft | 548 kts | 136° |
| 2026-05-03 21:16 | 28.48152 | -88.16773 | 30653 ft | 548 kts | 136° |
| 2026-05-03 21:16 | 28.44948 | -88.12459 | 30808 ft | 549 kts | 136° |
| 2026-05-03 21:16 | 28.41776 | -88.08202 | 30852 ft | 551 kts | 136° |
| 2026-05-03 21:17 | 28.37093 | -88.00719 | 30890 ft | 566 kts | 120° |
| 2026-05-03 21:17 | 28.35208 | -87.93841 | 30900 ft | 573 kts | 105° |
| 2026-05-03 21:17 | 28.33915 | -87.88618 | 30882 ft | 560 kts | 111° |
| 2026-05-03 21:18 | 28.31049 | -87.78555 | 30890 ft | 558 kts | 111° |
| 2026-05-03 21:18 | 28.28124 | -87.68460 | 30898 ft | 557 kts | 112° |
| 2026-05-03 21:19 | 28.25176 | -87.58345 | 30893 ft | 560 kts | 112° |
| 2026-05-03 21:19 | 28.22252 | -87.48306 | 30891 ft | 559 kts | 112° |
| 2026-05-03 21:20 | 28.20726 | -87.43320 | 0 ft | 562 kts | 112° |
| 2026-05-03 21:20 | 28.18109 | -87.39222 | 30755 ft | 523 kts | 140° |
| 2026-05-03 21:20 | 28.15575 | -87.35066 | 30574 ft | 543 kts | 120° |
| 2026-05-03 21:20 | 28.14088 | -87.30383 | 31001 ft | 548 kts | 108° |
| 2026-05-03 21:21 | 28.13610 | -87.25924 | 30801 ft | 564 kts | 91° |
| 2026-05-03 21:21 | 28.13856 | -87.21276 | 30894 ft | 566 kts | 90° |
| 2026-05-03 21:21 | 28.13455 | -87.16638 | 30888 ft | 565 kts | 106° |
| 2026-05-03 21:21 | 28.12106 | -87.12277 | 30992 ft | 555 kts | 121° |
| 2026-05-03 21:22 | 28.10525 | -87.08094 | 31170 ft | 560 kts | 115° |
| 2026-05-03 21:22 | 28.09177 | -87.03794 | 31047 ft | 568 kts | 113° |
| 2026-05-03 21:22 | 28.06548 | -86.95003 | 31100 ft | 566 kts | 113° |
| 2026-05-03 21:23 | 28.03960 | -86.86314 | 31082 ft | 562 kts | 113° |
| 2026-05-03 21:23 | 28.01380 | -86.77654 | 31092 ft | 559 kts | 113° |
| 2026-05-03 21:24 | 27.98938 | -86.68877 | 31095 ft | 563 kts | 111° |
| 2026-05-03 21:24 | 27.96937 | -86.61602 | 31092 ft | 561 kts | 112° |
| 2026-05-03 21:25 | 27.94121 | -86.51409 | 31091 ft | 563 kts | 111° |
| 2026-05-03 21:25 | 27.91697 | -86.42622 | 31095 ft | 562 kts | 112° |
| 2026-05-03 21:26 | 27.89278 | -86.33913 | 31103 ft | 561 kts | 112° |
| 2026-05-03 21:26 | 27.86853 | -86.25185 | 31083 ft | 559 kts | 112° |
| 2026-05-03 21:27 | 27.84438 | -86.16541 | 31086 ft | 562 kts | 112° |
| 2026-05-03 21:27 | 27.81990 | -86.07782 | 31085 ft | 561 kts | 112° |
| 2026-05-03 21:28 | 27.79554 | -85.99090 | 31095 ft | 560 kts | 113° |
| 2026-05-03 21:28 | 27.77116 | -85.90437 | 31080 ft | 564 kts | 112° |
| 2026-05-03 21:29 | 27.74654 | -85.81694 | 31087 ft | 562 kts | 112° |
| 2026-05-03 21:29 | 27.72192 | -85.72982 | 31089 ft | 560 kts | 112° |
| 2026-05-03 21:30 | 27.69731 | -85.64307 | 31083 ft | 562 kts | 112° |
| 2026-05-03 21:30 | 27.67265 | -85.55619 | 31089 ft | 562 kts | 113° |
| 2026-05-03 21:31 | 27.64773 | -85.46885 | 31090 ft | 564 kts | 113° |
| 2026-05-03 21:31 | 27.62294 | -85.38197 | 31083 ft | 564 kts | 113° |
| 2026-05-03 21:32 | 27.59789 | -85.29456 | 31070 ft | 563 kts | 114° |
| 2026-05-03 21:32 | 27.57300 | -85.20790 | 31057 ft | 563 kts | 114° |
| 2026-05-03 21:33 | 27.55249 | -85.11921 | 31064 ft | 571 kts | 105° |
| 2026-05-03 21:33 | 27.53669 | -85.02808 | 31057 ft | 570 kts | 106° |
| 2026-05-03 21:34 | 27.52057 | -84.93660 | 31062 ft | 577 kts | 106° |
| 2026-05-03 21:34 | 27.50437 | -84.84477 | 31082 ft | 580 kts | 105° |
| 2026-05-03 21:35 | 27.48811 | -84.75299 | 31074 ft | 573 kts | 106° |
| 2026-05-03 21:35 | 27.47193 | -84.66203 | 31056 ft | 573 kts | 106° |
| 2026-05-03 21:36 | 27.45568 | -84.57120 | 31058 ft | 572 kts | 106° |
| 2026-05-03 21:36 | 27.43936 | -84.48023 | 31060 ft | 570 kts | 106° |
| 2026-05-03 21:37 | 27.42332 | -84.38961 | 31044 ft | 574 kts | 102° |
| 2026-05-03 21:37 | 27.41965 | -84.29560 | 31043 ft | 576 kts | 95° |
| 2026-05-03 21:38 | 27.41719 | -84.20244 | 31043 ft | 575 kts | 95° |
| 2026-05-03 21:38 | 27.41457 | -84.10895 | 31032 ft | 576 kts | 95° |
| 2026-05-03 21:39 | 27.41190 | -84.01594 | 31031 ft | 573 kts | 95° |
| 2026-05-03 21:39 | 27.40916 | -83.92344 | 31032 ft | 575 kts | 95° |
| 2026-05-03 21:40 | 27.40638 | -83.83009 | 31034 ft | 575 kts | 95° |
| 2026-05-03 21:40 | 27.40350 | -83.73719 | 31035 ft | 575 kts | 95° |
| 2026-05-03 21:41 | 27.40064 | -83.64432 | 31027 ft | 573 kts | 95° |
| 2026-05-03 21:41 | 27.39763 | -83.55100 | 31030 ft | 574 kts | 95° |
| 2026-05-03 21:42 | 27.39460 | -83.45824 | 31029 ft | 574 kts | 96° |
| 2026-05-03 21:42 | 27.39152 | -83.36546 | 31027 ft | 575 kts | 96° |
| 2026-05-03 21:43 | 27.38836 | -83.27254 | 31003 ft | 574 kts | 96° |
| 2026-05-03 21:43 | 27.38511 | -83.17950 | 31007 ft | 574 kts | 96° |
| 2026-05-03 21:44 | 27.37164 | -83.08901 | 31006 ft | 562 kts | 113° |
| 2026-05-03 21:44 | 27.34837 | -83.00215 | 30999 ft | 560 kts | 112° |
| 2026-05-03 21:45 | 27.32514 | -82.91506 | 31011 ft | 560 kts | 112° |
| 2026-05-03 21:45 | 27.30179 | -82.82777 | 31009 ft | 562 kts | 112° |
| 2026-05-03 21:46 | 27.27284 | -82.74406 | 31011 ft | 549 kts | 123° |
| 2026-05-03 21:46 | 27.23766 | -82.66455 | 31013 ft | 552 kts | 123° |
| 2026-05-03 21:47 | 27.20225 | -82.58440 | 31018 ft | 551 kts | 123° |
| 2026-05-03 21:47 | 27.16708 | -82.50484 | 31026 ft | 549 kts | 123° |
| 2026-05-03 21:48 | 27.13180 | -82.42529 | 31036 ft | 551 kts | 123° |
| 2026-05-03 21:48 | 27.09646 | -82.34571 | 31032 ft | 549 kts | 123° |
| 2026-05-03 21:49 | 27.06115 | -82.26633 | 31017 ft | 549 kts | 123° |
| 2026-05-03 21:49 | 27.02571 | -82.18688 | 31022 ft | 550 kts | 123° |
| 2026-05-03 21:50 | 26.99054 | -82.10808 | 30796 ft | 540 kts | 123° |
| 2026-05-03 21:50 | 26.97317 | -82.06932 | 29721 ft | 540 kts | 123° |
| 2026-05-03 21:50 | 26.95268 | -82.03291 | 28373 ft | 529 kts | 135° |
| 2026-05-03 21:51 | 26.92692 | -82.00204 | 27029 ft | 522 kts | 140° |
| 2026-05-03 21:51 | 26.90113 | -81.97169 | 26066 ft | 516 kts | 139° |
| 2026-05-03 21:51 | 26.87571 | -81.94181 | 25539 ft | 511 kts | 139° |
| 2026-05-03 21:51 | 26.85117 | -81.91278 | 25569 ft | 470 kts | 139° |
| 2026-05-03 21:52 | 26.82939 | -81.88683 | 26262 ft | 443 kts | 141° |
| 2026-05-03 21:52 | 26.80653 | -81.86015 | 25867 ft | 457 kts | 140° |
| 2026-05-03 21:52 | 26.78413 | -81.83370 | 26027 ft | 452 kts | 140° |
| 2026-05-03 21:52 | 26.76151 | -81.80721 | 25827 ft | 455 kts | 140° |
| 2026-05-03 21:53 | 26.73867 | -81.78066 | 25034 ft | 455 kts | 140° |
| 2026-05-03 21:53 | 26.72368 | -81.76324 | 24421 ft | 456 kts | 140° |
| 2026-05-03 21:53 | 26.69341 | -81.72802 | 23575 ft | 448 kts | 140° |
| 2026-05-03 21:53 | 26.67111 | -81.70208 | 22924 ft | 443 kts | 140° |
| 2026-05-03 21:54 | 26.64909 | -81.67652 | 22299 ft | 439 kts | 139° |
| 2026-05-03 21:54 | 26.62757 | -81.65057 | 21652 ft | 439 kts | 134° |
| 2026-05-03 21:54 | 26.60871 | -81.62252 | 21009 ft | 437 kts | 131° |
| 2026-05-03 21:54 | 26.58989 | -81.59438 | 20405 ft | 432 kts | 131° |
| 2026-05-03 21:55 | 26.57140 | -81.56683 | 19803 ft | 428 kts | 131° |
| 2026-05-03 21:55 | 26.55292 | -81.53937 | 19211 ft | 424 kts | 131° |
| 2026-05-03 21:55 | 26.53453 | -81.51203 | 18622 ft | 420 kts | 131° |
| 2026-05-03 21:55 | 26.51652 | -81.48532 | 18069 ft | 416 kts | 131° |
| 2026-05-03 21:56 | 26.49857 | -81.45867 | 17423 ft | 409 kts | 131° |
| 2026-05-03 21:56 | 26.48089 | -81.43250 | 16444 ft | 406 kts | 131° |
| 2026-05-03 21:56 | 26.46364 | -81.40694 | 15553 ft | 399 kts | 131° |
| 2026-05-03 21:56 | 26.44644 | -81.38148 | 14702 ft | 392 kts | 130° |
| 2026-05-03 21:57 | 26.42953 | -81.35644 | 13762 ft | 387 kts | 130° |
| 2026-05-03 21:57 | 26.41302 | -81.33205 | 12917 ft | 380 kts | 131° |
| 2026-05-03 21:57 | 26.39570 | -81.30865 | 12049 ft | 377 kts | 134° |
| 2026-05-03 21:57 | 26.37805 | -81.28513 | 11994 ft | 383 kts | 133° |
| 2026-05-03 21:58 | 26.36043 | -81.26153 | 12043 ft | 383 kts | 133° |
| 2026-05-03 21:58 | 26.34286 | -81.23807 | 11949 ft | 374 kts | 133° |
| 2026-05-03 21:58 | 26.32547 | -81.21481 | 11981 ft | 376 kts | 133° |
| 2026-05-03 21:58 | 26.30799 | -81.19146 | 11984 ft | 375 kts | 133° |
| 2026-05-03 21:59 | 26.29076 | -81.16848 | 11966 ft | 375 kts | 133° |
| 2026-05-03 21:59 | 26.27326 | -81.14538 | 11971 ft | 375 kts | 134° |
| 2026-05-03 21:59 | 26.25566 | -81.12219 | 11978 ft | 374 kts | 134° |
| 2026-05-03 21:59 | 26.23874 | -81.09992 | 11567 ft | 363 kts | 133° |
| 2026-05-03 22:00 | 26.22156 | -81.07732 | 10864 ft | 368 kts | 133° |
| 2026-05-03 22:00 | 26.20437 | -81.05475 | 11085 ft | 368 kts | 133° |
| 2026-05-03 22:00 | 26.18716 | -81.03212 | 10957 ft | 371 kts | 133° |
| 2026-05-03 22:00 | 26.17002 | -81.00959 | 10951 ft | 370 kts | 133° |
| 2026-05-03 22:01 | 26.15313 | -80.98624 | 10969 ft | 371 kts | 126° |
| 2026-05-03 22:01 | 26.14258 | -80.95926 | 10756 ft | 370 kts | 106° |
| 2026-05-03 22:01 | 26.13809 | -80.92981 | 10090 ft | 372 kts | 100° |
| 2026-05-03 22:01 | 26.13366 | -80.90037 | 9511 ft | 370 kts | 101° |
| 2026-05-03 22:02 | 26.12909 | -80.87170 | 9030 ft | 366 kts | 102° |
| 2026-05-03 22:02 | 26.12435 | -80.84275 | 8526 ft | 362 kts | 102° |
| 2026-05-03 22:02 | 26.11970 | -80.81464 | 8029 ft | 359 kts | 102° |
| 2026-05-03 22:02 | 26.11615 | -80.78629 | 7494 ft | 357 kts | 92° |
| 2026-05-03 22:03 | 26.11636 | -80.75774 | 7050 ft | 353 kts | 90° |
| 2026-05-03 22:03 | 26.11652 | -80.72930 | 6931 ft | 349 kts | 90° |
| 2026-05-03 22:03 | 26.11664 | -80.70087 | 6983 ft | 352 kts | 90° |
| 2026-05-03 22:03 | 26.11673 | -80.67284 | 6933 ft | 349 kts | 90° |
| 2026-05-03 22:04 | 26.11682 | -80.64561 | 6930 ft | 332 kts | 90° |
| 2026-05-03 22:04 | 26.11679 | -80.62810 | 6914 ft | 320 kts | 96° |
| 2026-05-03 22:04 | 26.11159 | -80.59568 | 6838 ft | 296 kts | 102° |
| 2026-05-03 22:04 | 26.10778 | -80.57288 | 6777 ft | 277 kts | 102° |
| 2026-05-03 22:05 | 26.10429 | -80.55196 | 6640 ft | 257 kts | 102° |
| 2026-05-03 22:05 | 26.10094 | -80.53208 | 6267 ft | 248 kts | 102° |
| 2026-05-03 22:05 | 26.09759 | -80.51272 | 5697 ft | 243 kts | 106° |
| 2026-05-03 22:05 | 26.09048 | -80.49528 | 5063 ft | 239 kts | 122° |
| 2026-05-03 22:06 | 26.08196 | -80.47934 | 4657 ft | 228 kts | 122° |
| 2026-05-03 22:06 | 26.07345 | -80.46373 | 4187 ft | 222 kts | 122° |
| 2026-05-03 22:06 | 26.06790 | -80.44780 | 3816 ft | 212 kts | 91° |
| 2026-05-03 22:06 | 26.06774 | -80.43131 | 3531 ft | 198 kts | 89° |
| 2026-05-03 22:07 | 26.06754 | -80.41567 | 3140 ft | 193 kts | 89° |
| 2026-05-03 22:07 | 26.06737 | -80.40033 | 2953 ft | 188 kts | 88° |
| 2026-05-03 22:07 | 26.06727 | -80.38519 | 3003 ft | 191 kts | 88° |
| 2026-05-03 22:07 | 26.06718 | -80.36983 | 2974 ft | 191 kts | 89° |
| 2026-05-03 22:08 | 26.06711 | -80.35465 | 2978 ft | 191 kts | 89° |
| 2026-05-03 22:08 | 26.06697 | -80.33921 | 3012 ft | 191 kts | 90° |
| 2026-05-03 22:08 | 26.06682 | -80.32363 | 2799 ft | 194 kts | 89° |
| 2026-05-03 22:08 | 26.06671 | -80.30829 | 2550 ft | 190 kts | 88° |
| 2026-05-03 22:09 | 26.06664 | -80.29314 | 2306 ft | 187 kts | 88° |
| 2026-05-03 22:09 | 26.06657 | -80.28265 | 2133 ft | 184 kts | 88° |
| 2026-05-03 22:09 | 26.06650 | -80.26831 | 1902 ft | 183 kts | 88° |
| 2026-05-03 22:10 | 26.06636 | -80.24072 | 1409 ft | 164 kts | 88° |
| 2026-05-03 22:10 | 26.06628 | -80.22807 | 1256 ft | 149 kts | 88° |
| 2026-05-03 22:10 | 26.06622 | -80.21633 | 1028 ft | 142 kts | 87° |
| 2026-05-03 22:10 | 26.06617 | -80.20500 | 833 ft | 141 kts | 88° |
| 2026-05-03 22:11 | 26.06610 | -80.19377 | 647 ft | 142 kts | 88° |
| 2026-05-03 22:11 | 26.06603 | -80.18240 | 460 ft | 141 kts | 87° |
| 2026-05-03 22:11 | 26.06597 | -80.17114 | 267 ft | 140 kts | 88° |
| 2026-05-03 22:11 | 26.06587 | -80.15986 | 90 ft | 141 kts | 88° |
| 2026-05-03 22:12 | 26.06583 | -80.14884 | 17 ft | 124 kts | 90° |
| 2026-05-03 22:12 | 26.06579 | -80.14119 | 16 ft | 66 kts | 89° |
| 2026-05-03 22:12 | 26.06591 | -80.13850 | 16 ft | 0 kts | 67° |
| 2026-05-03 22:12 | 26.06630 | -80.13783 | 16 ft | 15 kts | 49° |
| 2026-05-03 22:13 | 26.06708 | -80.13727 | 16 ft | 7 kts | 1° |
| 2026-05-03 22:13 | 26.06731 | -80.13755 | 16 ft | 5 kts | 296° |
| 2026-05-03 22:13 | 26.06742 | -80.13793 | 16 ft | 4 kts | 278° |
| 2026-05-03 22:13 | 26.06743 | -80.13831 | 16 ft | 4 kts | 272° |
| 2026-05-03 22:14 | 26.06744 | -80.13866 | 16 ft | 4 kts | 270° |
| 2026-05-03 22:14 | 26.06744 | -80.13900 | 16 ft | 4 kts | 270° |
| 2026-05-03 22:14 | 26.06744 | -80.13931 | 16 ft | 3 kts | 270° |
| 2026-05-03 22:14 | 26.06743 | -80.13961 | 16 ft | 3 kts | 265° |
| 2026-05-03 22:15 | 26.06739 | -80.13989 | 16 ft | 3 kts | 259° |
| 2026-05-03 22:15 | 26.06732 | -80.14014 | 16 ft | 3 kts | 251° |
| 2026-05-03 22:15 | 26.06724 | -80.14037 | 16 ft | 3 kts | 251° |
| 2026-05-03 22:15 | 26.06717 | -80.14060 | 16 ft | 3 kts | 250° |
| 2026-05-03 22:16 | 26.06709 | -80.14083 | 16 ft | 2 kts | 249° |
| 2026-05-03 22:16 | 26.06702 | -80.14105 | 16 ft | 2 kts | 247° |
| 2026-05-03 22:16 | 26.06695 | -80.14124 | 16 ft | 2 kts | 254° |
| 2026-05-03 22:16 | 26.06692 | -80.14145 | 16 ft | 2 kts | 262° |
| 2026-05-03 22:17 | 26.06690 | -80.14181 | 16 ft | 11 kts | 269° |
| 2026-05-03 22:17 | 26.06691 | -80.14312 | 16 ft | 18 kts | 271° |
| 2026-05-03 22:17 | 26.06693 | -80.14457 | 16 ft | 18 kts | 270° |
| 2026-05-03 22:17 | 26.06693 | -80.14602 | 16 ft | 17 kts | 270° |
| 2026-05-03 22:18 | 26.06693 | -80.14616 | 16 ft | 0 kts | 270° |
| 2026-05-03 22:18 | 26.06693 | -80.14638 | 16 ft | 11 kts | 270° |
| 2026-05-03 22:18 | 26.06693 | -80.14781 | 16 ft | 19 kts | 270° |
| 2026-05-03 22:18 | 26.06695 | -80.14941 | 16 ft | 20 kts | 270° |
| 2026-05-03 22:19 | 26.06695 | -80.15063 | 16 ft | 11 kts | 271° |
| 2026-05-03 22:19 | 26.06712 | -80.15109 | 16 ft | 3 kts | 313° |
| 2026-05-03 22:19 | 26.06735 | -80.15122 | 16 ft | 3 kts | 347° |
| 2026-05-03 22:19 | 26.06745 | -80.15122 | 16 ft | 2 kts | 8° |
| 2026-05-03 22:20 | 26.06765 | -80.15102 | 16 ft | 0 kts | 66° |
| 2026-05-03 22:20 | 26.06766 | -80.15101 | 16 ft | 0 kts | 69° |
| 2026-05-03 22:20 | 26.06769 | -80.15073 | 16 ft | 6 kts | 90° |
| 2026-05-03 22:21 | 26.06769 | -80.15015 | 16 ft | 7 kts | 90° |
| 2026-05-03 22:21 | 26.06769 | -80.14954 | 16 ft | 7 kts | 90° |
| 2026-05-03 22:21 | 26.06769 | -80.14893 | 16 ft | 7 kts | 90° |
| 2026-05-03 22:21 | 26.06769 | -80.14835 | 16 ft | 7 kts | 90° |
| 2026-05-03 22:22 | 26.06769 | -80.14797 | 16 ft | 0 kts | 90° |
| 2026-05-03 22:22 | 26.06769 | -80.14787 | 16 ft | 4 kts | 90° |
| 2026-05-03 22:22 | 26.06769 | -80.14718 | 16 ft | 10 kts | 90° |
| 2026-05-03 22:22 | 26.06769 | -80.14639 | 16 ft | 9 kts | 83° |
| 2026-05-03 22:23 | 26.06803 | -80.14574 | 16 ft | 9 kts | 59° |
| 2026-05-03 22:23 | 26.06819 | -80.14505 | 16 ft | 9 kts | 85° |
| 2026-05-03 22:23 | 26.06820 | -80.14442 | 16 ft | 0 kts | 91° |
| 2026-05-03 22:24 | 26.06820 | -80.14438 | 16 ft | 2 kts | 91° |
| 2026-05-03 22:24 | 26.06819 | -80.14391 | 16 ft | 8 kts | 90° |
| 2026-05-03 22:25 | 26.06819 | -80.14317 | 16 ft | 9 kts | 90° |
| 2026-05-03 22:25 | 26.06819 | -80.14271 | 16 ft | 1 kts | 88° |
| 2026-05-03 22:25 | 26.06821 | -80.14260 | 16 ft | 0 kts | 73° |
| 2026-05-03 22:25 | 26.06826 | -80.14223 | 16 ft | 6 kts | 69° |
| 2026-05-03 22:26 | 26.06847 | -80.14211 | 16 ft | 3 kts | 356° |
| 2026-05-03 22:26 | 26.06869 | -80.14212 | 16 ft | 0 kts | 360° |